createdAt,value
2018-11-05T00:00:40.848Z,17.87
2018-11-05T00:03:09.591Z,18.70
2018-11-05T00:05:38.243Z,20.00
2018-11-05T00:08:06.862Z,18.80
2018-11-05T00:10:35.436Z,18.87
2018-11-05T00:13:04.181Z,19.03
2018-11-05T00:15:32.856Z,17.60
2018-11-05T00:18:01.584Z,17.50
2018-11-05T00:20:30.169Z,19.33
2018-11-05T00:22:58.753Z,17.73
2018-11-05T00:25:27.517Z,18.53
2018-11-05T00:27:56.285Z,17.23
2018-11-05T00:30:25.030Z,16.70
2018-11-05T00:32:54.443Z,19.30
2018-11-05T00:35:22.975Z,18.13
2018-11-05T00:37:51.579Z,19.83
2018-11-05T00:40:21.037Z,17.47
2018-11-05T00:42:49.783Z,18.97
2018-11-05T00:45:18.459Z,19.73
2018-11-05T00:47:47.082Z,18.37
2018-11-05T00:50:16.613Z,18.47
2018-11-05T00:52:45.307Z,18.53
2018-11-05T00:55:14.264Z,19.47
2018-11-05T00:57:42.998Z,22.43
2018-11-05T01:00:13.460Z,18.70
2018-11-05T01:02:42.510Z,18.23
2018-11-05T01:05:12.745Z,20.00
2018-11-05T01:07:42.372Z,19.30
2018-11-05T01:10:12.199Z,18.43
2018-11-05T01:12:41.098Z,20.33
2018-11-05T01:15:13.063Z,19.13
2018-11-05T01:17:41.923Z,19.50
2018-11-05T01:20:12.060Z,20.83
2018-11-05T01:22:40.726Z,21.47
2018-11-05T01:25:09.467Z,20.20
2018-11-05T01:27:38.572Z,19.77
2018-11-05T01:30:09.664Z,20.73
2018-11-05T01:32:38.397Z,21.13
2018-11-05T01:35:08.719Z,19.83
2018-11-05T01:37:37.551Z,17.87
2018-11-05T01:40:08.370Z,20.97
2018-11-05T01:42:37.360Z,20.43
2018-11-05T01:45:07.272Z,18.73
2018-11-05T01:47:37.450Z,19.83
2018-11-05T01:50:07.124Z,20.53
2018-11-05T01:52:35.871Z,22.60
2018-11-05T01:55:04.550Z,21.10
2018-11-05T01:57:33.311Z,21.23
2018-11-05T02:00:02.466Z,21.70
2018-11-05T02:02:31.764Z,22.13
2018-11-05T02:05:01.353Z,20.87
2018-11-05T02:07:30.170Z,20.70
2018-11-05T02:09:58.801Z,22.30
2018-11-05T02:12:27.396Z,22.73
2018-11-05T02:14:56.063Z,21.13
2018-11-05T02:17:24.784Z,24.33
2018-11-05T02:19:53.621Z,21.07
2018-11-05T02:22:22.391Z,22.10
2018-11-05T02:24:51.112Z,23.60
2018-11-05T02:27:19.754Z,20.30
2018-11-05T02:29:48.275Z,22.43
2018-11-05T02:32:16.838Z,23.30
2018-11-05T02:34:45.540Z,23.97
2018-11-05T02:37:14.360Z,19.97
2018-11-05T02:39:43.024Z,21.50
2018-11-05T02:42:11.903Z,21.50
2018-11-05T02:44:40.596Z,21.90
2018-11-05T02:47:09.346Z,22.17
2018-11-05T02:49:39.901Z,22.23
2018-11-05T02:52:08.600Z,22.43
2018-11-05T02:54:37.872Z,21.13
2018-11-05T02:57:06.763Z,25.33
2018-11-05T02:59:36.415Z,24.63
2018-11-05T03:02:05.586Z,24.47
2018-11-05T03:04:34.307Z,24.07
2018-11-05T03:07:03.820Z,23.57
2018-11-05T03:09:32.488Z,24.63
2018-11-05T03:12:02.687Z,24.87
2018-11-05T03:14:31.484Z,23.30
2018-11-05T03:17:01.369Z,22.70
2018-11-05T03:19:30.151Z,23.47
2018-11-05T03:21:59.033Z,22.97
2018-11-05T03:24:27.755Z,26.33
2018-11-05T03:26:57.013Z,26.37
2018-11-05T03:29:25.682Z,25.13
2018-11-05T03:31:54.327Z,26.63
2018-11-05T03:34:22.977Z,24.43
2018-11-05T03:36:51.768Z,24.60
2018-11-05T03:39:20.493Z,25.20
2018-11-05T03:41:49.243Z,24.90
2018-11-05T03:44:17.901Z,23.23
2018-11-05T03:46:46.619Z,24.03
2018-11-05T03:49:15.452Z,25.33
2018-11-05T03:51:45.114Z,24.37
2018-11-05T03:54:14.147Z,25.40
2018-11-05T03:56:42.935Z,24.07
2018-11-05T03:59:11.959Z,23.33
2018-11-05T04:01:41.470Z,25.50
2018-11-05T04:04:10.175Z,25.80
2018-11-05T04:06:38.868Z,24.60
2018-11-05T04:09:09.564Z,25.60
2018-11-05T04:11:38.718Z,23.53
2018-11-05T04:14:07.642Z,23.17
2018-11-05T04:16:37.000Z,24.30
2018-11-05T04:19:05.772Z,24.00
2018-11-05T04:21:41.041Z,23.60
2018-11-05T04:24:10.410Z,24.97
2018-11-05T04:26:39.472Z,26.43
2018-11-05T04:29:08.690Z,24.80
2018-11-05T04:31:37.959Z,27.33
2018-11-05T04:34:06.810Z,25.33
2018-11-05T04:36:36.392Z,24.70
2018-11-05T04:39:11.853Z,25.53
2018-11-05T04:41:40.706Z,25.73
2018-11-05T04:44:09.769Z,25.63
2018-11-05T04:46:39.128Z,23.67
2018-11-05T04:49:08.622Z,27.47
2018-11-05T04:51:37.322Z,23.33
2018-11-05T04:54:06.578Z,25.63
2018-11-05T04:56:35.268Z,26.07
2018-11-05T04:59:04.046Z,27.20
2018-11-05T05:01:32.703Z,27.67
2018-11-05T05:04:01.652Z,29.63
2018-11-05T05:06:30.299Z,28.83
2018-11-05T05:08:59.815Z,30.07
2018-11-05T05:11:28.492Z,32.07
2018-11-05T05:13:57.317Z,30.53
2018-11-05T05:16:26.225Z,35.47
2018-11-05T05:18:54.894Z,35.60
2018-11-05T05:21:23.564Z,37.53
2018-11-05T05:23:52.174Z,38.30
2018-11-05T05:26:20.912Z,45.03
2018-11-05T05:28:49.777Z,42.37
2018-11-05T05:31:18.483Z,47.10
2018-11-05T05:33:47.253Z,45.97
2018-11-05T05:36:15.820Z,50.17
2018-11-05T05:38:44.514Z,45.57
2018-11-05T05:41:13.432Z,49.33
2018-11-05T05:43:42.030Z,47.67
2018-11-05T05:46:10.915Z,50.40
2018-11-05T05:48:39.995Z,54.67
2018-11-05T05:51:08.691Z,53.67
2018-11-05T05:53:37.333Z,49.83
2018-11-05T05:56:06.303Z,55.30
2018-11-05T05:58:35.307Z,53.37
2018-11-05T06:01:05.316Z,54.27
2018-11-05T06:03:33.912Z,52.40
2018-11-05T06:06:05.281Z,49.83
2018-11-05T06:08:34.182Z,53.53
2018-11-05T06:11:04.057Z,55.07
2018-11-05T06:13:32.859Z,55.63
2018-11-05T06:16:02.853Z,50.77
2018-11-05T06:18:31.368Z,52.20
2018-11-05T06:21:00.055Z,48.77
2018-11-05T06:23:28.798Z,51.67
2018-11-05T06:25:57.405Z,48.70
2018-11-05T06:28:26.100Z,51.37
2018-11-05T06:30:54.718Z,55.37
2018-11-05T06:33:23.411Z,49.37
2018-11-05T06:35:52.047Z,48.30
2018-11-05T06:38:20.983Z,48.20
2018-11-05T06:40:49.564Z,49.37
2018-11-05T06:43:18.212Z,49.23
2018-11-05T06:45:46.976Z,50.20
2018-11-05T06:48:15.646Z,52.77
2018-11-05T06:50:44.283Z,51.93
2018-11-05T06:53:12.783Z,52.27
2018-11-05T06:55:41.347Z,45.53
2018-11-05T06:58:10.022Z,47.37
2018-11-05T07:00:38.688Z,50.70
2018-11-05T07:03:07.331Z,49.20
2018-11-05T07:05:36.083Z,53.30
2018-11-05T07:08:04.831Z,50.00
2018-11-05T07:10:33.512Z,52.07
2018-11-05T07:13:02.876Z,50.97
2018-11-05T07:15:31.513Z,56.83
2018-11-05T07:18:00.113Z,57.37
2018-11-05T07:20:28.782Z,54.63
2018-11-05T07:22:57.443Z,55.77
2018-11-05T07:25:26.112Z,50.93
2018-11-05T07:27:54.732Z,52.50
2018-11-05T07:30:24.219Z,50.13
2018-11-05T07:32:54.118Z,49.13
2018-11-05T07:35:22.922Z,52.50
2018-11-05T07:37:51.624Z,52.67
2018-11-05T07:40:20.833Z,52.47
2018-11-05T07:42:49.561Z,48.90
2018-11-05T07:45:19.628Z,50.20
2018-11-05T07:47:48.626Z,50.70
2018-11-05T07:50:18.353Z,47.67
2018-11-05T07:52:46.892Z,49.90
2018-11-05T07:55:16.740Z,49.40
2018-11-05T07:57:46.203Z,46.97
2018-11-05T08:00:21.192Z,46.30
2018-11-05T08:02:51.270Z,49.77
2018-11-05T08:05:20.861Z,52.20
2018-11-05T08:07:49.852Z,53.37
2018-11-05T08:10:18.536Z,46.50
2018-11-05T08:12:47.267Z,49.53
2018-11-05T08:15:17.970Z,52.63
2018-11-05T08:17:47.594Z,54.53
2018-11-05T08:20:16.300Z,50.00
2018-11-05T08:22:45.138Z,48.87
2018-11-05T08:25:14.877Z,47.70
2018-11-05T08:27:43.603Z,50.63
2018-11-05T08:30:22.995Z,50.73
2018-11-05T08:32:51.767Z,50.73
2018-11-05T08:35:20.981Z,48.40
2018-11-05T08:37:50.292Z,47.70
2018-11-05T08:40:21.292Z,48.60
2018-11-05T08:42:50.941Z,48.10
2018-11-05T08:45:20.927Z,43.33
2018-11-05T08:47:49.661Z,43.23
2018-11-05T08:50:19.698Z,42.87
2018-11-05T08:52:48.350Z,41.67
2018-11-05T08:55:18.449Z,40.67
2018-11-05T08:57:47.362Z,40.80
2018-11-05T09:00:52.676Z,36.80
2018-11-05T09:03:21.358Z,36.20
2018-11-05T09:05:50.157Z,37.27
2018-11-05T09:08:19.402Z,32.17
2018-11-05T09:10:48.617Z,37.77
2018-11-05T09:13:17.090Z,35.90
2018-11-05T09:15:46.140Z,36.40
2018-11-05T09:18:15.042Z,35.20
2018-11-05T09:20:43.676Z,36.00
2018-11-05T09:23:12.304Z,35.40
2018-11-05T09:25:40.941Z,39.63
2018-11-05T09:28:09.796Z,37.77
2018-11-05T09:30:38.633Z,33.43
2018-11-05T09:33:07.604Z,34.77
2018-11-05T09:35:36.336Z,35.30
2018-11-05T09:38:05.159Z,32.57
2018-11-05T09:40:34.014Z,33.20
2018-11-05T09:43:02.895Z,34.97
2018-11-05T09:45:31.506Z,35.17
2018-11-05T09:48:06.810Z,33.87
2018-11-05T09:50:35.649Z,32.60
2018-11-05T09:53:04.248Z,34.67
2018-11-05T09:55:33.064Z,33.53
2018-11-05T09:58:01.681Z,33.53
2018-11-05T10:00:30.362Z,34.30
2018-11-05T10:03:02.232Z,34.53
2018-11-05T10:05:30.788Z,35.70
2018-11-05T10:07:59.359Z,36.37
2018-11-05T10:10:28.092Z,36.00
2018-11-05T10:12:56.886Z,34.53
2018-11-05T10:15:25.726Z,37.80
2018-11-05T10:17:54.614Z,34.90
2018-11-05T10:20:24.429Z,36.17
2018-11-05T10:22:53.299Z,35.63
2018-11-05T10:25:22.246Z,35.90
2018-11-05T10:27:51.692Z,33.37
2018-11-05T10:30:23.835Z,35.43
2018-11-05T10:32:52.496Z,37.93
2018-11-05T10:35:25.253Z,40.53
2018-11-05T10:37:54.064Z,36.93
2018-11-05T10:40:22.754Z,37.63
2018-11-05T10:42:51.572Z,36.13
2018-11-05T10:45:20.302Z,37.43
2018-11-05T10:47:48.984Z,39.63
2018-11-05T10:50:18.591Z,41.43
2018-11-05T10:52:51.510Z,45.70
2018-11-05T10:55:20.239Z,41.73
2018-11-05T10:57:49.327Z,42.17
2018-11-05T11:00:25.345Z,45.87
2018-11-05T11:02:59.292Z,46.13
2018-11-05T11:05:28.839Z,43.10
2018-11-05T11:07:58.719Z,46.57
2018-11-05T11:10:28.234Z,46.90
2018-11-05T11:12:57.272Z,45.23
2018-11-05T11:15:26.000Z,43.13
2018-11-05T11:17:55.019Z,46.57
2018-11-05T11:20:23.843Z,49.77
2018-11-05T11:22:52.610Z,43.70
2018-11-05T11:25:21.380Z,42.67
2018-11-05T11:27:50.172Z,46.07
2018-11-05T11:30:18.777Z,42.23
2018-11-05T11:32:47.992Z,47.57
2018-11-05T11:35:23.353Z,48.80
2018-11-05T11:37:52.093Z,43.23
2018-11-05T11:40:22.334Z,47.23
2018-11-05T11:42:51.421Z,42.77
2018-11-05T11:45:21.448Z,44.27
2018-11-05T11:47:50.170Z,42.60
2018-11-05T11:50:19.080Z,44.77
2018-11-05T11:52:49.179Z,42.60
2018-11-05T11:55:19.545Z,44.47
2018-11-05T11:57:48.242Z,39.13
2018-11-05T12:00:23.053Z,42.90
2018-11-05T12:02:52.625Z,41.43
2018-11-05T12:05:21.627Z,42.20
2018-11-05T12:07:50.350Z,42.87
2018-11-05T12:10:21.701Z,42.17
2018-11-05T12:12:50.399Z,44.23
2018-11-05T12:15:19.754Z,41.90
2018-11-05T12:17:49.484Z,42.17
2018-11-05T12:20:19.363Z,42.93
2018-11-05T12:22:48.679Z,41.93
2018-11-05T12:25:17.416Z,40.27
2018-11-05T12:27:46.074Z,40.23
2018-11-05T12:30:17.046Z,40.47
2018-11-05T12:32:47.234Z,40.60
2018-11-05T12:35:15.892Z,41.43
2018-11-05T12:37:45.963Z,46.77
2018-11-05T12:40:16.261Z,42.87
2018-11-05T12:42:48.335Z,43.90
2018-11-05T12:45:16.943Z,42.63
2018-11-05T12:47:46.215Z,41.20
2018-11-05T12:50:19.383Z,42.53
2018-11-05T12:52:48.924Z,47.30
2018-11-05T12:55:17.873Z,44.00
2018-11-05T12:57:47.168Z,41.30
2018-11-05T13:00:18.005Z,46.83
2018-11-05T13:02:51.872Z,45.43
2018-11-05T13:05:20.546Z,58.63
2018-11-05T13:07:49.335Z,49.13
2018-11-05T13:10:18.247Z,50.07
2018-11-05T13:12:46.811Z,49.97
2018-11-05T13:15:15.565Z,45.57
2018-11-05T13:17:44.171Z,47.77
2018-11-05T13:20:15.257Z,47.93
2018-11-05T13:22:44.266Z,44.60
2018-11-05T13:25:13.182Z,47.70
2018-11-05T13:27:43.676Z,45.37
2018-11-05T13:30:13.162Z,47.60
2018-11-05T13:32:42.593Z,44.98
2018-11-05T13:35:13.182Z,46.80
2018-11-05T13:37:42.557Z,46.73
2018-11-05T13:40:13.555Z,49.67
2018-11-05T13:42:42.714Z,45.23
2018-11-05T13:45:12.828Z,44.43
2018-11-05T13:47:43.183Z,42.70
2018-11-05T13:50:12.646Z,47.30
2018-11-05T13:52:41.508Z,46.37
2018-11-05T13:55:12.452Z,47.80
2018-11-05T13:57:42.068Z,45.57
2018-11-05T14:00:13.056Z,46.33
2018-11-05T14:02:41.808Z,48.13
2018-11-05T14:05:11.346Z,47.00
2018-11-05T14:07:40.470Z,43.83
2018-11-05T14:10:16.020Z,42.17
2018-11-05T14:12:45.816Z,42.17
2018-11-05T14:15:14.571Z,45.27
2018-11-05T14:17:44.002Z,42.07
2018-11-05T14:20:13.655Z,44.73
2018-11-05T14:22:43.007Z,44.80
2018-11-05T14:25:14.244Z,48.47
2018-11-05T14:27:44.161Z,48.57
2018-11-05T14:30:13.592Z,47.07
2018-11-05T14:32:43.652Z,52.23
2018-11-05T14:35:12.358Z,45.77
2018-11-05T14:37:41.317Z,54.50
2018-11-05T14:40:11.932Z,52.50
2018-11-05T14:42:40.864Z,54.63
2018-11-05T14:45:12.365Z,49.97
2018-11-05T14:47:42.206Z,52.50
2018-11-05T14:50:13.646Z,50.13
2018-11-05T14:52:42.566Z,53.07
2018-11-05T14:55:13.663Z,52.97
2018-11-05T14:57:43.866Z,54.70
2018-11-05T15:00:19.002Z,52.10
2018-11-05T15:02:48.704Z,51.50
2018-11-05T15:05:17.724Z,57.47
2018-11-05T15:07:47.431Z,58.27
2018-11-05T15:10:23.863Z,52.70
2018-11-05T15:12:52.512Z,55.17
2018-11-05T15:15:21.875Z,54.40
2018-11-05T15:17:50.558Z,57.93
2018-11-05T15:20:20.868Z,57.87
2018-11-05T15:22:49.548Z,56.60
2018-11-05T15:25:18.952Z,56.07
2018-11-05T15:27:47.731Z,57.57
2018-11-05T15:30:18.164Z,55.27
2018-11-05T15:32:47.014Z,59.00
2018-11-05T15:35:15.852Z,59.50
2018-11-05T15:37:45.029Z,56.83
2018-11-05T15:40:15.331Z,63.23
2018-11-05T15:42:44.049Z,63.27
2018-11-05T15:45:13.989Z,66.23
2018-11-05T15:47:43.308Z,62.80
2018-11-05T15:50:13.692Z,70.43
2018-11-05T15:52:43.235Z,61.30
2018-11-05T15:55:12.148Z,59.30
2018-11-05T15:57:41.248Z,60.10
2018-11-05T16:00:19.358Z,64.30
2018-11-05T16:02:50.768Z,64.03
2018-11-05T16:05:19.834Z,66.53
2018-11-05T16:07:48.645Z,73.00
2018-11-05T16:10:17.571Z,68.63
2018-11-05T16:12:46.249Z,69.47
2018-11-05T16:15:15.032Z,74.87
2018-11-05T16:17:43.803Z,77.83
2018-11-05T16:20:17.680Z,69.67
2018-11-05T16:22:47.154Z,74.83
2018-11-05T16:25:15.847Z,82.60
2018-11-05T16:27:44.848Z,72.83
2018-11-05T16:30:15.396Z,78.00
2018-11-05T16:32:44.743Z,74.27
2018-11-05T16:35:13.785Z,77.40
2018-11-05T16:37:42.488Z,81.13
2018-11-05T16:40:16.112Z,78.70
2018-11-05T16:42:46.289Z,79.57
2018-11-05T16:45:15.178Z,84.57
2018-11-05T16:47:44.114Z,82.43
2018-11-05T16:50:15.535Z,88.40
2018-11-05T16:52:44.323Z,92.17
2018-11-05T16:55:13.917Z,93.83
2018-11-05T16:57:49.443Z,89.40
2018-11-05T17:00:24.822Z,85.80
2018-11-05T17:02:53.478Z,82.80
2018-11-05T17:05:22.246Z,85.73
2018-11-05T17:07:50.896Z,79.57
2018-11-05T17:10:19.841Z,83.00
2018-11-05T17:12:48.815Z,84.83
2018-11-05T17:15:17.928Z,84.87
2018-11-05T17:17:46.815Z,82.03
2018-11-05T17:20:17.075Z,85.90
2018-11-05T17:22:46.079Z,84.13
2018-11-05T17:25:15.373Z,85.70
2018-11-05T17:27:44.786Z,86.53
2018-11-05T17:30:15.843Z,87.13
2018-11-05T17:32:45.042Z,82.37
2018-11-05T17:35:14.255Z,81.97
2018-11-05T17:37:43.389Z,114.20
2018-11-05T17:40:13.756Z,91.47
2018-11-05T17:42:43.518Z,108.73
2018-11-05T17:45:13.760Z,89.03
2018-11-05T17:47:42.716Z,86.83
2018-11-05T17:50:13.969Z,128.43
2018-11-05T17:52:44.164Z,93.67
2018-11-05T17:55:13.795Z,91.67
2018-11-05T17:57:43.737Z,86.10
2018-11-05T18:00:14.923Z,85.73
2018-11-05T18:02:43.763Z,76.03
2018-11-05T18:05:12.635Z,78.43
2018-11-05T18:07:41.633Z,85.70
2018-11-05T18:10:10.450Z,86.47
2018-11-05T18:12:39.510Z,85.77
2018-11-05T18:15:10.085Z,103.63
2018-11-05T18:17:39.572Z,81.07
2018-11-05T18:20:09.661Z,88.90
2018-11-05T18:22:38.384Z,85.00
2018-11-05T18:25:08.974Z,82.50
2018-11-05T18:27:37.638Z,81.83
2018-11-05T18:30:06.756Z,86.40
2018-11-05T18:32:35.560Z,79.93
2018-11-05T18:35:04.410Z,82.13
2018-11-05T18:37:33.028Z,81.73
2018-11-05T18:40:01.719Z,86.73
2018-11-05T18:42:30.796Z,82.07
2018-11-05T18:44:59.689Z,79.77
2018-11-05T18:47:28.515Z,79.23
2018-11-05T18:49:57.302Z,81.00
2018-11-05T18:52:26.040Z,74.70
2018-11-05T18:54:54.782Z,78.60
2018-11-05T18:57:23.540Z,78.37
2018-11-05T18:59:52.231Z,78.37
2018-11-05T19:02:26.033Z,70.97
2018-11-05T19:04:54.767Z,86.17
2018-11-05T19:07:23.755Z,78.70
2018-11-05T19:09:52.443Z,74.40
2018-11-05T19:12:21.237Z,73.27
2018-11-05T19:14:49.922Z,78.80
2018-11-05T19:17:18.664Z,72.23
2018-11-05T19:19:47.432Z,76.00
2018-11-05T19:22:16.336Z,74.30
2018-11-05T19:24:45.188Z,75.73
2018-11-05T19:27:13.866Z,78.33
2018-11-05T19:29:42.621Z,75.97
2018-11-05T19:32:11.409Z,72.00
2018-11-05T19:34:40.201Z,74.97
2018-11-05T19:37:09.396Z,78.37
2018-11-05T19:39:38.169Z,76.93
2018-11-05T19:42:07.154Z,71.97
2018-11-05T19:44:36.093Z,80.10
2018-11-05T19:47:04.847Z,82.13
2018-11-05T19:49:33.525Z,65.57
2018-11-05T19:52:02.619Z,72.90
2018-11-05T19:54:31.319Z,74.07
2018-11-05T19:57:00.067Z,75.03
2018-11-05T19:59:28.900Z,74.07
2018-11-05T20:01:57.986Z,74.77
2018-11-05T20:04:26.796Z,76.30
2018-11-05T20:06:55.468Z,77.03
2018-11-05T20:09:25.104Z,74.77
2018-11-05T20:11:54.024Z,80.80
2018-11-05T20:14:23.065Z,74.10
2018-11-05T20:16:51.968Z,79.80
2018-11-05T20:19:20.710Z,81.67
2018-11-05T20:21:49.212Z,83.27
2018-11-05T20:24:19.475Z,84.47
2018-11-05T20:26:48.574Z,84.83
2018-11-05T20:29:17.468Z,78.57
2018-11-05T20:31:46.952Z,74.83
2018-11-05T20:34:15.967Z,75.53
2018-11-05T20:36:44.928Z,75.93
2018-11-05T20:39:13.692Z,90.77
2018-11-05T20:41:42.317Z,71.10
2018-11-05T20:44:11.208Z,74.90
2018-11-05T20:46:40.116Z,73.43
2018-11-05T20:49:08.828Z,69.40
2018-11-05T20:51:37.541Z,70.07
2018-11-05T20:54:06.637Z,73.23
2018-11-05T20:56:35.281Z,74.70
2018-11-05T20:59:04.884Z,76.80
2018-11-05T21:01:33.636Z,70.03
2018-11-05T21:04:03.323Z,75.40
2018-11-05T21:06:32.111Z,79.80
2018-11-05T21:09:00.865Z,76.70
2018-11-05T21:11:29.524Z,69.03
2018-11-05T21:13:58.256Z,78.87
2018-11-05T21:16:27.089Z,70.03
2018-11-05T21:18:55.844Z,82.10
2018-11-05T21:21:24.719Z,75.53
2018-11-05T21:23:53.549Z,78.47
2018-11-05T21:26:22.355Z,71.63
2018-11-05T21:28:51.084Z,67.30
2018-11-05T21:31:19.720Z,69.03
2018-11-05T21:33:48.574Z,57.50
2018-11-05T21:36:17.393Z,59.27
2018-11-05T21:38:50.187Z,66.50
2018-11-05T21:41:19.067Z,61.90
2018-11-05T21:43:48.053Z,64.83
2018-11-05T21:46:16.996Z,60.40
2018-11-05T21:48:50.453Z,64.87
2018-11-05T21:51:19.913Z,57.70
2018-11-05T21:53:48.727Z,55.67
2018-11-05T21:56:18.196Z,53.37
2018-11-05T21:58:47.222Z,84.87
2018-11-05T22:01:15.845Z,51.90
2018-11-05T22:03:47.865Z,52.73
2018-11-05T22:06:16.558Z,50.33
2018-11-05T22:08:46.120Z,48.90
2018-11-05T22:11:18.902Z,82.30
2018-11-05T22:13:50.422Z,83.60
2018-11-05T22:16:23.128Z,49.50
2018-11-05T22:18:51.862Z,44.93
2018-11-05T22:21:20.808Z,44.87
2018-11-05T22:23:50.559Z,47.57
2018-11-05T22:26:22.322Z,54.63
2018-11-05T22:28:53.800Z,46.10
2018-11-05T22:31:22.598Z,46.00
2018-11-05T22:33:51.374Z,45.80
2018-11-05T22:36:20.262Z,53.57
2018-11-05T22:38:50.210Z,40.90
2018-11-05T22:41:19.072Z,37.57
2018-11-05T22:43:47.816Z,41.20
2018-11-05T22:46:16.632Z,38.33
2018-11-05T22:48:46.028Z,36.60
2018-11-05T22:51:14.629Z,39.23
2018-11-05T22:53:43.300Z,45.30
2018-11-05T22:56:13.118Z,44.70
2018-11-05T22:58:41.816Z,35.50
2018-11-05T23:01:14.641Z,38.07
2018-11-05T23:03:43.474Z,33.70
2018-11-05T23:06:12.260Z,36.63
2018-11-05T23:08:40.906Z,35.83
2018-11-05T23:11:09.755Z,35.23
2018-11-05T23:13:38.510Z,34.90
2018-11-05T23:16:07.331Z,41.07
2018-11-05T23:18:36.184Z,37.60
2018-11-05T23:21:05.472Z,32.70
2018-11-05T23:23:34.355Z,31.30
2018-11-05T23:26:03.704Z,33.17
2018-11-05T23:28:32.383Z,36.67
2018-11-05T23:31:01.628Z,51.17
2018-11-05T23:33:30.840Z,31.57
2018-11-05T23:36:00.386Z,34.27
2018-11-05T23:38:29.275Z,85.43
2018-11-05T23:40:58.223Z,42.27
2018-11-05T23:43:26.944Z,33.50
2018-11-05T23:45:56.196Z,39.63
2018-11-05T23:48:29.717Z,39.53
2018-11-05T23:50:59.967Z,42.23
2018-11-05T23:53:29.124Z,31.87
2018-11-05T23:55:57.974Z,39.87
2018-11-05T23:58:26.617Z,34.17
